createdAt,value
2022-08-17T00:02:04.995Z,68.53
2022-08-17T00:04:38.571Z,69.79
2022-08-17T00:07:05.088Z,69.35
2022-08-17T00:09:31.574Z,69.72
2022-08-17T00:12:03.933Z,70.43
2022-08-17T00:14:44.480Z,69.10
2022-08-17T00:17:10.908Z,69.55
2022-08-17T00:19:37.388Z,68.56
2022-08-17T00:22:32.141Z,69.96
2022-08-17T00:24:53.168Z,69.29
2022-08-17T00:27:19.895Z,69.02
2022-08-17T00:29:46.781Z,71.15
2022-08-17T00:33:14.209Z,70.43
2022-08-17T00:35:05.131Z,70.35
2022-08-17T00:37:31.619Z,70.56
2022-08-17T00:39:58.163Z,70.37
2022-08-17T00:42:28.953Z,70.08
2022-08-17T00:44:57.644Z,70.79
2022-08-17T00:47:24.095Z,69.15
2022-08-17T00:49:50.599Z,68.75
2022-08-17T00:52:22.956Z,70.46
2022-08-17T00:54:53.311Z,71.33
2022-08-17T00:57:26.322Z,70.06
2022-08-17T01:00:03.092Z,69.52
2022-08-17T01:02:42.018Z,70.00
2022-08-17T01:05:18.616Z,69.74
2022-08-17T01:07:47.932Z,69.77
2022-08-17T01:10:58.227Z,70.13
2022-08-17T01:13:04.058Z,70.71
2022-08-17T01:15:35.205Z,69.67
2022-08-17T01:18:01.863Z,70.69
2022-08-17T01:20:28.419Z,70.21
2022-08-17T01:22:54.998Z,70.25
2022-08-17T01:25:22.241Z,71.22
2022-08-17T01:27:49.034Z,70.21
2022-08-17T01:30:58.172Z,70.70
2022-08-17T01:33:04.286Z,70.54
2022-08-17T01:35:30.881Z,70.23
2022-08-17T01:37:57.379Z,71.25
2022-08-17T01:40:29.513Z,69.17
2022-08-17T01:43:01.334Z,69.76
2022-08-17T01:45:33.607Z,71.36
2022-08-17T01:48:00.644Z,71.55
2022-08-17T01:50:31.168Z,72.38
2022-08-17T01:53:07.157Z,74.57
2022-08-17T01:55:45.634Z,74.89
2022-08-17T01:58:12.452Z,76.19
2022-08-17T02:01:00.445Z,76.22
2022-08-17T02:03:27.328Z,76.44
2022-08-17T02:05:53.975Z,77.32
2022-08-17T02:08:38.679Z,76.25
2022-08-17T02:11:14.587Z,77.38
2022-08-17T02:13:41.728Z,77.00
2022-08-17T02:16:08.242Z,76.63
2022-08-17T02:18:34.876Z,75.87
2022-08-17T02:21:02.129Z,75.24
2022-08-17T02:23:32.142Z,76.57
2022-08-17T02:26:00.522Z,76.78
2022-08-17T02:28:28.490Z,74.56
2022-08-17T02:31:01.105Z,75.21
2022-08-17T02:33:41.667Z,74.49
2022-08-17T02:36:12.376Z,75.33
2022-08-17T02:38:40.606Z,76.18
2022-08-17T02:41:07.300Z,75.23
2022-08-17T02:43:33.866Z,73.79
2022-08-17T02:46:00.488Z,74.25
2022-08-17T02:48:28.224Z,75.17
2022-08-17T02:50:57.920Z,74.55
2022-08-17T02:53:24.439Z,73.83
2022-08-17T02:55:52.766Z,74.47
2022-08-17T02:58:35.671Z,73.45
2022-08-17T03:01:06.397Z,73.82
2022-08-17T03:03:33.598Z,74.52
2022-08-17T03:06:00.947Z,74.33
2022-08-17T03:08:27.512Z,74.94
2022-08-17T03:10:54.179Z,74.85
2022-08-17T03:13:20.758Z,75.68
2022-08-17T03:15:48.491Z,76.25
2022-08-17T03:18:25.295Z,74.58
2022-08-17T03:20:58.709Z,74.92
2022-08-17T03:23:27.439Z,74.54
2022-08-17T03:25:55.179Z,75.98
2022-08-17T03:28:23.003Z,75.83
2022-08-17T03:30:51.096Z,73.92
2022-08-17T03:33:18.242Z,75.53
2022-08-17T03:35:44.760Z,75.55
2022-08-17T03:38:15.832Z,74.74
2022-08-17T03:40:57.766Z,74.82
2022-08-17T03:43:30.228Z,74.50
2022-08-17T03:46:28.293Z,74.14
2022-08-17T03:49:20.433Z,73.91
2022-08-17T03:52:05.464Z,74.12
2022-08-17T03:54:50.132Z,73.24
2022-08-17T03:57:17.127Z,74.26
2022-08-17T03:59:45.125Z,74.56
2022-08-17T04:02:22.978Z,75.21
2022-08-17T04:04:53.819Z,75.02
2022-08-17T04:07:22.142Z,75.13
2022-08-17T04:09:49.174Z,75.47
2022-08-17T04:12:17.891Z,75.00
2022-08-17T04:14:53.330Z,75.12
2022-08-17T04:17:21.388Z,74.89
2022-08-17T04:19:47.836Z,75.35
2022-08-17T04:22:33.292Z,75.33
2022-08-17T04:25:20.155Z,74.69
2022-08-17T04:27:48.267Z,75.24
2022-08-17T04:30:15.563Z,75.52
2022-08-17T04:33:05.725Z,74.80
2022-08-17T04:35:37.800Z,75.53
2022-08-17T04:38:05.464Z,75.17
2022-08-17T04:40:50.276Z,76.67
2022-08-17T04:43:20.445Z,76.34
2022-08-17T04:45:56.715Z,75.79
2022-08-17T04:48:35.543Z,76.21
2022-08-17T04:51:05.748Z,76.81
2022-08-17T04:53:32.200Z,76.97
2022-08-17T04:55:59.153Z,77.29
2022-08-17T04:58:25.775Z,77.95
2022-08-17T05:00:52.290Z,78.41
2022-08-17T05:03:18.792Z,78.51
2022-08-17T05:05:49.622Z,78.46
2022-08-17T05:08:19.059Z,78.01
2022-08-17T05:10:46.791Z,78.81
2022-08-17T05:13:16.838Z,78.66
2022-08-17T05:15:45.318Z,79.17
2022-08-17T05:18:15.123Z,79.15
2022-08-17T05:20:41.668Z,79.10
2022-08-17T05:23:11.561Z,79.04
2022-08-17T05:25:47.357Z,78.67
2022-08-17T05:28:15.200Z,79.00
2022-08-17T05:30:43.838Z,79.34
2022-08-17T05:33:34.933Z,79.32
2022-08-17T05:36:04.139Z,79.63
2022-08-17T05:38:31.191Z,78.24
2022-08-17T05:40:59.194Z,78.87
2022-08-17T05:43:26.781Z,78.35
2022-08-17T05:46:00.409Z,78.26
2022-08-17T05:48:35.635Z,78.51
2022-08-17T05:51:12.784Z,78.78
2022-08-17T05:53:44.112Z,78.20
2022-08-17T05:56:29.898Z,77.69
2022-08-17T05:59:03.081Z,78.09
2022-08-17T06:01:48.370Z,77.95
2022-08-17T06:04:41.119Z,78.03
2022-08-17T06:07:31.879Z,76.77
2022-08-17T06:10:20.179Z,77.35
2022-08-17T06:12:53.921Z,76.87
2022-08-17T06:15:38.930Z,77.35
2022-08-17T06:18:09.474Z,76.71
2022-08-17T06:20:45.586Z,76.15
2022-08-17T06:23:25.833Z,76.40
2022-08-17T06:25:57.551Z,76.56
2022-08-17T06:28:52.870Z,76.56
2022-08-17T06:31:42.224Z,77.13
2022-08-17T06:34:12.539Z,77.20
2022-08-17T06:37:19.203Z,76.65
2022-08-17T06:40:01.492Z,77.04
2022-08-17T06:42:59.918Z,76.45
2022-08-17T06:45:33.922Z,77.00
2022-08-17T06:48:24.801Z,77.48
2022-08-17T06:50:55.912Z,78.14
2022-08-17T06:53:37.324Z,78.10
2022-08-17T06:56:23.557Z,77.41
2022-08-17T06:58:50.134Z,78.18
2022-08-17T07:01:26.739Z,77.54
2022-08-17T07:03:54.711Z,78.16
2022-08-17T07:06:26.477Z,77.55
2022-08-17T07:09:23.263Z,77.21
2022-08-17T07:11:55.220Z,77.73
2022-08-17T07:14:45.977Z,77.58
2022-08-17T07:17:15.607Z,77.85
2022-08-17T07:19:45.437Z,77.18
2022-08-17T07:22:53.511Z,77.51
2022-08-17T07:25:22.352Z,77.95
2022-08-17T07:27:52.804Z,77.07
2022-08-17T07:30:30.099Z,77.65
2022-08-17T07:33:01.653Z,76.77
2022-08-17T07:35:41.448Z,77.48
2022-08-17T07:38:25.205Z,77.53
2022-08-17T07:41:02.774Z,77.92
2022-08-17T07:43:36.466Z,79.53
2022-08-17T07:46:35.089Z,79.83
2022-08-17T07:49:03.343Z,80.59
2022-08-17T07:51:33.830Z,79.96
2022-08-17T07:54:23.407Z,80.66
2022-08-17T07:57:02.008Z,80.13
2022-08-17T07:59:34.293Z,81.38
2022-08-17T08:02:16.898Z,80.83
2022-08-17T08:05:00.255Z,80.43
2022-08-17T08:07:34.802Z,80.23
2022-08-17T08:10:01.263Z,80.52
2022-08-17T08:12:34.231Z,79.96
2022-08-17T08:15:09.241Z,79.80
2022-08-17T08:17:46.641Z,79.53
2022-08-17T08:20:42.392Z,80.51
2022-08-17T08:23:19.822Z,79.06
2022-08-17T08:25:59.461Z,76.93
2022-08-17T08:28:55.762Z,76.88
2022-08-17T08:31:54.496Z,75.57
2022-08-17T08:35:08.306Z,74.15
2022-08-17T08:37:47.115Z,74.63
2022-08-17T08:40:24.774Z,73.01
2022-08-17T08:43:19.412Z,73.56
2022-08-17T08:45:58.479Z,73.75
2022-08-17T08:48:56.589Z,73.19
2022-08-17T08:51:27.616Z,71.91
2022-08-17T08:54:14.228Z,72.24
2022-08-17T08:57:11.867Z,71.88
2022-08-17T08:59:42.049Z,71.15
2022-08-17T09:02:21.899Z,71.32
2022-08-17T09:05:26.132Z,71.62
2022-08-17T09:08:29.721Z,71.52
2022-08-17T09:11:06.824Z,71.53
2022-08-17T09:13:54.610Z,72.04
2022-08-17T09:16:33.136Z,71.94
2022-08-17T09:19:17.021Z,71.70
2022-08-17T09:21:52.690Z,71.75
2022-08-17T09:24:40.116Z,71.29
2022-08-17T09:27:09.414Z,71.36
2022-08-17T09:29:43.015Z,71.50
2022-08-17T09:32:24.781Z,70.72
2022-08-17T09:34:54.922Z,71.08
2022-08-17T09:37:42.778Z,71.07
2022-08-17T09:40:41.016Z,71.64
2022-08-17T09:43:17.613Z,74.43
2022-08-17T09:45:50.579Z,75.02
2022-08-17T09:48:30.131Z,76.46
2022-08-17T09:51:40.308Z,76.42
2022-08-17T09:54:38.543Z,76.85
2022-08-17T09:57:32.616Z,77.00
2022-08-17T10:00:18.656Z,76.91
2022-08-17T10:03:22.698Z,78.37
2022-08-17T10:06:22.215Z,76.95
2022-08-17T10:08:57.437Z,77.05
2022-08-17T10:12:03.586Z,76.51
2022-08-17T10:15:07.963Z,75.31
2022-08-17T10:17:42.381Z,74.96
2022-08-17T10:20:20.171Z,74.25
2022-08-17T10:23:09.795Z,75.56
2022-08-17T10:26:12.936Z,75.09
2022-08-17T10:28:50.003Z,73.81
2022-08-17T10:31:45.543Z,72.35
2022-08-17T10:34:38.902Z,73.05
2022-08-17T10:37:20.817Z,72.21
2022-08-17T10:40:10.650Z,70.50
2022-08-17T10:43:04.402Z,71.72
2022-08-17T10:46:10.664Z,70.89
2022-08-17T10:48:39.399Z,71.13
2022-08-17T10:51:10.222Z,72.24
2022-08-17T10:53:37.594Z,71.38
2022-08-17T10:56:12.863Z,71.84
2022-08-17T10:59:00.635Z,71.58
2022-08-17T11:01:33.028Z,69.93
2022-08-17T11:04:25.912Z,71.82
2022-08-17T11:07:02.144Z,70.83
2022-08-17T11:10:05.908Z,71.16
2022-08-17T11:12:50.325Z,70.86
2022-08-17T11:15:51.460Z,70.89
2022-08-17T11:18:21.028Z,70.42
2022-08-17T11:21:08.358Z,70.94
2022-08-17T11:24:14.022Z,71.75
2022-08-17T11:26:47.583Z,70.96
2022-08-17T11:29:24.606Z,71.69
2022-08-17T11:32:32.561Z,71.34
2022-08-17T11:35:22.107Z,71.68
2022-08-17T11:37:51.187Z,73.31
2022-08-17T11:40:25.498Z,73.65
2022-08-17T11:43:15.586Z,74.71
2022-08-17T11:46:02.070Z,75.99
2022-08-17T11:49:11.844Z,77.70
2022-08-17T11:52:01.572Z,78.13
2022-08-17T11:54:33.379Z,78.38
2022-08-17T11:57:26.177Z,78.73
2022-08-17T11:59:58.739Z,77.76
2022-08-17T12:02:31.412Z,78.03
2022-08-17T12:05:26.169Z,77.59
2022-08-17T12:08:19.663Z,78.08
2022-08-17T12:11:06.390Z,79.19
2022-08-17T12:13:43.338Z,79.86
2022-08-17T12:16:15.158Z,80.66
2022-08-17T12:18:49.351Z,80.60
2022-08-17T12:21:29.059Z,81.06
2022-08-17T12:24:14.685Z,81.98
2022-08-17T12:26:44.067Z,82.89
2022-08-17T12:29:18.395Z,82.84
2022-08-17T12:32:03.740Z,83.42
2022-08-17T12:34:50.692Z,83.49
2022-08-17T12:37:27.567Z,83.85
2022-08-17T12:39:58.991Z,83.98
2022-08-17T12:42:34.810Z,84.49
2022-08-17T12:45:01.312Z,85.08
2022-08-17T12:47:29.989Z,85.28
2022-08-17T12:50:08.150Z,85.44
2022-08-17T12:52:59.679Z,85.42
2022-08-17T12:55:29.340Z,85.83
2022-08-17T12:58:01.896Z,85.67
2022-08-17T13:00:47.344Z,85.91
2022-08-17T13:03:22.037Z,86.25
2022-08-17T13:06:06.280Z,85.38
2022-08-17T13:08:36.587Z,84.82
2022-08-17T13:11:09.359Z,84.69
2022-08-17T13:13:39.215Z,84.40
2022-08-17T13:16:14.804Z,85.21
2022-08-17T13:18:52.843Z,84.95
2022-08-17T13:21:19.296Z,84.68
2022-08-17T13:24:01.108Z,84.70
2022-08-17T13:26:40.323Z,84.74
2022-08-17T13:29:24.048Z,85.05
2022-08-17T13:32:04.697Z,85.74
2022-08-17T13:34:35.795Z,86.00
2022-08-17T13:37:30.022Z,86.15
2022-08-17T13:40:11.797Z,86.55
2022-08-17T13:42:51.530Z,86.88
2022-08-17T13:45:36.679Z,87.03
2022-08-17T13:48:16.635Z,87.34
2022-08-17T13:51:02.228Z,86.72
2022-08-17T13:53:31.651Z,87.91
2022-08-17T13:56:07.366Z,87.42
2022-08-17T13:59:00.126Z,87.33
2022-08-17T14:01:42.479Z,87.42
2022-08-17T14:04:15.854Z,87.35
2022-08-17T14:06:54.094Z,87.22
2022-08-17T14:09:24.276Z,87.61
2022-08-17T14:11:51.689Z,88.08
2022-08-17T14:14:19.130Z,87.85
2022-08-17T14:16:45.604Z,87.65
2022-08-17T14:19:14.345Z,87.20
2022-08-17T14:21:44.115Z,87.80
2022-08-17T14:24:20.725Z,87.84
2022-08-17T14:26:47.843Z,87.85
2022-08-17T14:29:15.274Z,87.10
2022-08-17T14:31:42.378Z,86.97
2022-08-17T14:34:15.052Z,86.65
2022-08-17T14:36:48.380Z,86.24
2022-08-17T14:39:16.132Z,86.46
2022-08-17T14:41:42.967Z,86.02
2022-08-17T14:44:12.649Z,86.90
2022-08-17T14:46:40.887Z,86.64
2022-08-17T14:49:08.547Z,87.00
2022-08-17T14:51:41.642Z,87.39
2022-08-17T14:54:11.787Z,86.88
2022-08-17T14:57:33.780Z,86.99
2022-08-17T14:59:44.859Z,86.77
2022-08-17T15:02:12.044Z,87.13
2022-08-17T15:04:43.379Z,86.75
2022-08-17T15:07:11.932Z,86.44
2022-08-17T15:09:38.991Z,86.98
2022-08-17T15:12:06.641Z,86.72
2022-08-17T15:14:35.553Z,85.96
2022-08-17T15:17:03.740Z,86.05
2022-08-17T15:19:30.362Z,86.43
2022-08-17T15:21:57.035Z,86.25
2022-08-17T15:24:23.515Z,86.12
2022-08-17T15:26:50.168Z,86.34
2022-08-17T15:29:16.628Z,86.57
2022-08-17T15:31:43.226Z,86.86
2022-08-17T15:34:09.808Z,86.75
2022-08-17T15:36:36.996Z,86.41
2022-08-17T15:39:05.370Z,85.88
2022-08-17T15:41:31.926Z,85.60
2022-08-17T15:43:58.403Z,85.14
2022-08-17T15:46:26.263Z,85.46
2022-08-17T15:48:59.836Z,84.26
2022-08-17T15:51:29.633Z,84.65
2022-08-17T15:54:04.458Z,84.43
2022-08-17T15:56:46.330Z,84.18
2022-08-17T15:59:12.884Z,84.23
2022-08-17T16:03:13.444Z,84.13
2022-08-17T16:04:29.986Z,83.51
2022-08-17T16:06:57.801Z,83.62
2022-08-17T16:09:24.304Z,83.65
2022-08-17T16:11:53.654Z,84.26
2022-08-17T16:14:22.335Z,83.42
2022-08-17T16:16:50.464Z,84.18
2022-08-17T16:19:17.091Z,83.89
2022-08-17T16:21:43.588Z,84.06
2022-08-17T16:24:13.353Z,83.94
2022-08-17T16:26:40.529Z,82.98
2022-08-17T16:29:07.209Z,83.72
2022-08-17T16:31:34.036Z,83.48
2022-08-17T16:34:15.867Z,83.95
2022-08-17T16:36:51.816Z,83.87
2022-08-17T16:39:22.575Z,84.25
2022-08-17T16:41:50.320Z,82.81
2022-08-17T16:44:21.170Z,81.70
2022-08-17T16:46:48.741Z,83.32
2022-08-17T16:49:31.915Z,83.01
2022-08-17T16:52:03.369Z,83.27
2022-08-17T16:54:30.231Z,82.86
2022-08-17T16:56:56.803Z,81.17
2022-08-17T16:59:31.686Z,81.75
2022-08-17T17:02:11.192Z,81.77
2022-08-17T17:05:01.089Z,81.10
2022-08-17T17:07:35.346Z,80.94
2022-08-17T17:10:09.845Z,82.04
2022-08-17T17:13:02.408Z,82.13
2022-08-17T17:15:45.195Z,80.49
2022-08-17T17:18:13.949Z,80.18
2022-08-17T17:20:47.695Z,81.70
2022-08-17T17:23:39.717Z,80.71
2022-08-17T17:26:32.121Z,81.66
2022-08-17T17:29:26.424Z,80.94
2022-08-17T17:32:07.384Z,81.31
2022-08-17T17:34:34.844Z,80.42
2022-08-17T17:37:11.285Z,81.30
2022-08-17T17:39:44.843Z,80.42
2022-08-17T17:42:22.050Z,82.55
2022-08-17T17:44:59.077Z,80.53
2022-08-17T17:47:26.583Z,81.01
2022-08-17T17:49:53.123Z,80.73
2022-08-17T17:52:26.052Z,81.50
2022-08-17T17:54:58.483Z,80.43
2022-08-17T17:57:40.427Z,80.21
2022-08-17T18:00:14.546Z,80.57
2022-08-17T18:02:59.732Z,81.52
2022-08-17T18:05:55.617Z,80.60
2022-08-17T18:08:32.333Z,80.01
2022-08-17T18:11:06.930Z,80.77
2022-08-17T18:14:00.837Z,80.29
2022-08-17T18:16:29.614Z,81.40
2022-08-17T18:18:59.624Z,80.24
2022-08-17T18:21:35.558Z,80.09
2022-08-17T18:24:04.526Z,79.78
2022-08-17T18:26:54.132Z,80.08
2022-08-17T18:29:44.444Z,80.56
2022-08-17T18:32:31.890Z,80.50
2022-08-17T18:35:27.946Z,81.25
2022-08-17T18:38:20.449Z,82.59
2022-08-17T18:41:00.184Z,82.91
2022-08-17T18:43:53.162Z,83.14
2022-08-17T18:46:36.513Z,83.13
2022-08-17T18:49:07.745Z,83.68
2022-08-17T18:51:41.671Z,83.53
2022-08-17T18:54:18.513Z,83.96
2022-08-17T18:56:55.013Z,84.01
2022-08-17T18:59:31.751Z,84.96
2022-08-17T19:02:33.664Z,85.06
2022-08-17T19:05:10.057Z,85.04
2022-08-17T19:07:44.308Z,84.89
2022-08-17T19:10:24.652Z,84.26
2022-08-17T19:13:23.965Z,84.25
2022-08-17T19:16:12.347Z,83.80
2022-08-17T19:19:01.817Z,83.25
2022-08-17T19:21:46.696Z,82.59
2022-08-17T19:24:19.517Z,83.14
2022-08-17T19:27:12.302Z,82.88
2022-08-17T19:29:46.575Z,83.71
2022-08-17T19:32:17.296Z,82.44
2022-08-17T19:34:44.712Z,83.24
2022-08-17T19:37:23.823Z,83.82
2022-08-17T19:39:55.103Z,82.73
2022-08-17T19:42:58.664Z,82.99
2022-08-17T19:46:01.392Z,82.21
2022-08-17T19:48:50.648Z,82.41
2022-08-17T19:51:28.736Z,82.48
2022-08-17T19:54:06.753Z,84.51
2022-08-17T19:57:01.543Z,83.07
2022-08-17T19:59:36.080Z,83.59
2022-08-17T20:02:30.013Z,83.42
2022-08-17T20:05:00.982Z,83.86
2022-08-17T20:07:54.347Z,82.79
2022-08-17T20:10:48.097Z,82.91
2022-08-17T20:13:33.282Z,82.18
2022-08-17T20:16:02.105Z,82.82
2022-08-17T20:18:34.350Z,83.33
2022-08-17T20:21:03.313Z,84.56
2022-08-17T20:23:29.989Z,85.48
2022-08-17T20:26:19.111Z,85.96
2022-08-17T20:29:08.728Z,86.61
2022-08-17T20:31:49.546Z,87.07
2022-08-17T20:34:36.720Z,86.72
2022-08-17T20:37:24.250Z,86.84
2022-08-17T20:39:50.806Z,86.86
2022-08-17T20:42:20.245Z,87.39
2022-08-17T20:44:50.253Z,87.14
2022-08-17T20:47:27.121Z,87.60
2022-08-17T20:50:02.632Z,87.92
2022-08-17T20:52:47.783Z,86.97
2022-08-17T20:55:52.217Z,86.95
2022-08-17T20:58:31.120Z,86.97
2022-08-17T21:00:57.885Z,86.73
2022-08-17T21:03:24.436Z,86.72
2022-08-17T21:06:00.253Z,87.09
2022-08-17T21:08:53.481Z,87.07
2022-08-17T21:11:56.677Z,86.98
2022-08-17T21:14:41.605Z,87.10
2022-08-17T21:17:29.700Z,86.81
2022-08-17T21:20:43.771Z,86.78
2022-08-17T21:23:47.505Z,86.59
2022-08-17T21:26:32.011Z,86.31
2022-08-17T21:29:32.046Z,86.14
2022-08-17T21:32:03.205Z,86.91
2022-08-17T21:34:42.382Z,87.26
2022-08-17T21:37:22.055Z,87.79
2022-08-17T21:39:56.199Z,87.55
2022-08-17T21:42:34.464Z,86.83
2022-08-17T21:45:18.312Z,87.19
2022-08-17T21:47:49.920Z,87.59
2022-08-17T21:50:21.187Z,87.53
2022-08-17T21:52:50.048Z,87.20
2022-08-17T21:55:29.322Z,87.40
2022-08-17T21:58:13.648Z,87.54
2022-08-17T22:00:40.944Z,87.23
2022-08-17T22:03:23.583Z,87.28
2022-08-17T22:05:51.261Z,87.18
2022-08-17T22:08:21.804Z,87.18
2022-08-17T22:10:51.266Z,86.86
2022-08-17T22:13:17.907Z,86.48
2022-08-17T22:15:50.926Z,86.51
2022-08-17T22:18:28.816Z,86.68
2022-08-17T22:20:58.301Z,86.75
2022-08-17T22:23:51.401Z,86.82
2022-08-17T22:26:19.850Z,86.55
2022-08-17T22:28:51.637Z,87.00
2022-08-17T22:31:20.671Z,86.72
2022-08-17T22:33:50.421Z,86.43
2022-08-17T22:36:39.926Z,86.39
2022-08-17T22:39:09.334Z,86.38
2022-08-17T22:41:48.277Z,86.48
2022-08-17T22:44:37.701Z,86.52
2022-08-17T22:47:16.968Z,86.68
2022-08-17T22:49:53.405Z,86.63
2022-08-17T22:53:01.760Z,86.10
2022-08-17T22:55:49.777Z,85.91
2022-08-17T22:58:42.241Z,85.63
2022-08-17T23:01:29.974Z,86.00
2022-08-17T23:04:02.500Z,85.88
2022-08-17T23:06:30.063Z,86.01
2022-08-17T23:08:57.677Z,85.57
2022-08-17T23:11:45.932Z,85.59
2022-08-17T23:14:15.657Z,85.29
2022-08-17T23:16:45.036Z,84.68
2022-08-17T23:19:15.282Z,84.68
2022-08-17T23:21:44.686Z,84.87
2022-08-17T23:24:17.856Z,85.28
2022-08-17T23:26:44.301Z,85.32
2022-08-17T23:29:10.765Z,85.66
2022-08-17T23:31:38.786Z,84.41
2022-08-17T23:34:15.087Z,84.31
2022-08-17T23:36:42.034Z,84.53
2022-08-17T23:39:08.537Z,84.52
2022-08-17T23:41:38.930Z,84.23
2022-08-17T23:44:06.954Z,84.31
2022-08-17T23:46:34.505Z,84.64
2022-08-17T23:49:01.174Z,84.46
2022-08-17T23:51:31.397Z,84.42
2022-08-17T23:54:07.731Z,84.27
2022-08-17T23:56:43.387Z,84.73
2022-08-17T23:59:09.932Z,84.77
